Home > Products > Valid Products > MTR

000
SAUS43 KDTX 191854
MTRP58
METAR KP58 191851Z AUTO 05006KT 04/01 A3046 RMK AO2 SLP324 T00390006
PWINO TSNO





000
SAUS43 KDTX 191752
MTRP58
METAR KP58 191751Z AUTO 06006KT 03/00 A3047 RMK AO2 SLP328 T00330000
10033 20022 58008 PWINO TSNO





000
SAUS43 KDTX 191653
MTRP58
METAR KP58 191651Z AUTO 06006KT 03/00 A3049 RMK AO2 SLP335 T00330000
PWINO TSNO





000
SAUS43 KDTX 191554
MTRP58
METAR KP58 191551Z AUTO 07009KT 03/M01 A3050 RMK AO2 SLP337
T00281006 PWINO TSNO





000
SAUS43 KDTX 191452
MTRP58
METAR KP58 191451Z AUTO 06010KT 03/M01 A3050 RMK AO2 SLP337
T00281006 51012 PWINO TSNO





000
SAUS43 KDTX 191352
MTRP58
METAR KP58 191351Z AUTO 06010KT 03/00 A3049 RMK AO2 SLP332 T00280000
PWINO TSNO





000
SAUS43 KDTX 191252
MTRP58
METAR KP58 191251Z AUTO 05012KT 02/00 A3048 RMK AO2 SLP332 T00220000
PWINO FZRANO TSNO





000
SAUS43 KDTX 191154
MTRP58
METAR KP58 191151Z AUTO 03011KT 02/00 A3046 RMK AO2 SLP325 T00220000
10022 20011 51015 PWINO FZRANO TSNO





000
SAUS43 KDTX 191054
MTRP58
METAR KP58 191051Z AUTO 01010KT 02/00 A3046 RMK AO2 SLP324 T00170000
PWINO FZRANO TSNO





000
SAUS43 KDTX 190954
MTRP58
METAR KP58 190951Z AUTO 01007KT 02/00 A3043 RMK AO2 SLP314 T00170000
PWINO FZRANO TSNO





000
SAUS43 KDTX 190854
MTRP58
METAR KP58 190851Z AUTO VRB03KT 01/00 A3042 RMK AO2 SLP310 T00110000
53010 PWINO FZRANO TSNO





000
SAUS43 KDTX 190754
MTRP58
METAR KP58 190751Z AUTO 35004KT 02/M01 A3040 RMK AO2 SLP304
T00171006 PWINO FZRANO TSNO





000
SAUS43 KDTX 190652
MTRP58
METAR KP58 190651Z AUTO 35005KT 02/M01 A3038 RMK AO2 SLP295
T00171006 PWINO FZRANO TSNO





000
SAUS43 KDTX 190554
MTRP58
METAR KP58 190551Z AUTO 34005KT 02/M01 A3039 RMK AO2 SLP299
T00221011 10033 20022 53009 PWINO FZRANO TSNO





000
SAUS43 KDTX 190452
MTRP58
METAR KP58 190451Z AUTO 34004KT 02/M01 A3038 RMK AO2 SLP295
T00221011 401000022 PWINO FZRANO TSNO





000
SAUS43 KDTX 190352
MTRP58
METAR KP58 190351Z AUTO 33003KT 03/M01 A3037 RMK AO2 SLP291
T00281011 PWINO TSNO





000
SAUS43 KDTX 190253
MTRP58
METAR KP58 190251Z AUTO 34006KT 03/M01 A3036 RMK AO2 SLP289
T00281006 53016 PWINO TSNO





000
SAUS43 KDTX 190152
MTRP58
METAR KP58 190151Z AUTO 36012G19KT 03/M01 A3034 RMK AO2 SLP280
T00331006 PWINO TSNO





000
SAUS43 KDTX 190053
MTRP58
METAR KP58 190051Z AUTO 02008KT 02/M01 A3032 RMK AO2 SLP277
T00221011 PWINO FZRANO TSNO





000
SAUS43 KDTX 182352
MTRP58
METAR KP58 182351Z AUTO 03009KT 02/M01 A3031 RMK AO2 SLP273
T00221011 10056 20022 50005 PWINO FZRANO TSNO





000
SAUS43 KDTX 182253
MTRP58
METAR KP58 182251Z AUTO 04011KT 02/M01 A3031 RMK AO2 SLP273
T00221006 PWINO FZRANO TSNO





000
SAUS43 KDTX 182153
MTRP58
METAR KP58 182151Z AUTO 06008KT 03/00 A3031 RMK AO2 SLP270 T00280000
PWINO TSNO





000
SAUS43 KDTX 182053
MTRP58
METAR KP58 182051Z AUTO 05007KT 03/01 A3030 RMK AO2 SLP267 T00330006
58002 PWINO TSNO





000
SAUS43 KDTX 181954
MTRP58
METAR KP58 181951Z AUTO 05006KT 04/00 A3031 RMK AO2 SLP271 T00390000
PWINO TSNO





000
SAUS43 KDTX 181853
MTRP58
METAR KP58 181851Z AUTO 06004KT 06/00 A3031 RMK AO2 SLP270 T00560000
PWINO TSNO





000
SAUS43 KDTX 181752
MTRP58
METAR KP58 181751Z AUTO 00000KT 05/01 A3030 RMK AO2 SLP267 T00500006
10061 20039 53000 PWINO TSNO





000
SAUS43 KDTX 181653
MTRP58
METAR KP58 181651Z AUTO 08003KT 04/01 A3030 RMK AO2 SLP265 T00440006
PWINO TSNO





000
SAUS43 KDTX 181553
MTRP58
METAR KP58 181551Z AUTO 03005KT 04/00 A3030 RMK AO2 SLP266 T00390000
PWINO TSNO





000
SAUS43 KDTX 181452
MTRP58
METAR KP58 181451Z AUTO 02005KT 04/00 A3030 RMK AO2 SLP266 T00440000
53006 PWINO TSNO





000
SAUS43 KDTX 181353 COR
MTRP58
METAR KP58 181351Z AUTO 00000KT 05/00 A3029 RMK AO2 SLP263 T00500000
PWINO TSNO





000
SAUS43 KDTX 181254
MTRP58
METAR KP58 181251Z AUTO 00000KT 05/00 A3029 RMK AO2 SLP263 T00500000
PWINO TSNO





000
SAUS43 KDTX 181152
MTRP58
METAR KP58 181151Z AUTO 00000KT 05/00 A3029 RMK AO2 SLP260 T00500000
10094 20050 53021 PWINO TSNO





000
SAUS43 KDTX 181054
MTRP58
METAR KP58 181051Z AUTO 32004KT 05/01 A3026 RMK AO2 SLP253 T00500006
PWINO TSNO





000
SAUS43 KDTX 180954
MTRP58
METAR KP58 180951Z AUTO 31004KT 06/01 A3024 RMK AO2 SLP243 T00560011
PWINO TSNO





000
SAUS43 KDTX 180853
MTRP58
METAR KP58 180851Z AUTO 31007KT 07/01 A3022 RMK AO2 SLP238 T00720006
53006 PWINO TSNO





000
SAUS43 KDTX 180752
MTRP58
METAR KP58 180751Z AUTO 29005KT 07/01 A3022 RMK AO2 SLP237 T00720011
PWINO TSNO





000
SAUS43 KDTX 180653
MTRP58
METAR KP58 180651Z AUTO 00000KT 07/01 A3021 RMK AO2 SLP235 T00720011
PWINO TSNO





000
SAUS43 KDTX 180553
MTRP58
METAR KP58 180551Z AUTO 23003KT 09/03 A3021 RMK AO2 SLP232 T00940028
10117 20094 51004 PWINO TSNO





000
SAUS43 KDTX 180454
MTRP58
METAR KP58 180451Z AUTO VRB03KT 10/02 A3020 RMK AO2 SLP232 T01000022
401220011 PWINO TSNO





000
SAUS43 KDTX 180352
MTRP58
METAR KP58 180351Z AUTO 00000KT 10/02 A3022 RMK AO2 SLP238 T01000022
PWINO TSNO





000
SAUS43 KDTX 180253
MTRP58
METAR KP58 180251Z AUTO 16007KT 11/02 A3019 RMK AO2 SLP230 T01060017
50001 PWINO TSNO





000
SAUS43 KDTX 180153
MTRP58
METAR KP58 180151Z AUTO 15006KT 10/02 A3020 RMK AO2 SLP232 T01000022
PWINO TSNO





000
SAUS43 KDTX 180052
MTRP58
METAR KP58 180051Z AUTO 16006KT 10/02 A3020 RMK AO2 SLP231 T01000017
PWINO TSNO





000
SAUS43 KDTX 172354
MTRP58
METAR KP58 172351Z AUTO 15006KT 12/02 A3019 RMK AO2 SLP230 T01170022
10122 20067 58007 PWINO TSNO





000
SAUS43 KDTX 172252
MTRP58
METAR KP58 172251Z AUTO 13009G17KT 11/03 A3020 RMK AO2 SLP232
T01060028 PWINO TSNO





000
SAUS43 KDTX 172154
MTRP58
METAR KP58 172151Z AUTO 15010G19KT 11/01 A3021 RMK AO2 SLP235
T01110011 PWINO TSNO





000
SAUS43 KDTX 172052
MTRP58
METAR KP58 172051Z AUTO 15014G25KT 11/00 A3021 RMK AO2 PK WND
14027/2031 SLP237 T01060000 58021 PWINO TSNO





000
SAUS43 KDTX 171952
MTRP58
METAR KP58 171951Z AUTO 12016G21KT 08/02 A3023 RMK AO2 SLP245
T00780017 PWINO TSNO





000
SAUS43 KDTX 171854
MTRP58
METAR KP58 171851Z AUTO 11017KT 07/01 A3027 RMK AO2 SLP256 T00670011
PWINO TSNO





000
SAUS43 KDTX 171752
MTRP58
METAR KP58 171751Z AUTO 12015G19KT 07/01 A3028 RMK AO2 SLP260
T00670006 10078 20017 56026 PWINO TSNO





000
SAUS43 KDTX 171652
MTRP58
METAR KP58 171651Z AUTO 12015G20KT 07/M02 A3030 RMK AO2 SLP267
T00671017 PWINO TSNO





000
SAUS43 KDTX 171553
MTRP58
METAR KP58 171551Z AUTO 14014G22KT 06/M02 A3032 RMK AO2 PK WND
15026/1517 SLP276 T00561022 PWINO TSNO





000
SAUS43 KDTX 171453
MTRP58
METAR KP58 171451Z AUTO 14012G19KT 04/M03 A3035 RMK AO2 PK WND
13026/1355 SLP288 T00391028 56011 PWINO TSNO





000
SAUS43 KDTX 171352
MTRP58
METAR KP58 171351Z AUTO 14013G22KT 03/M03 A3036 RMK AO2 SLP290
T00281033 PWINO TSNO





000
SAUS43 KDTX 171254
MTRP58
METAR KP58 171251Z AUTO 12016KT 02/M03 A3037 RMK AO2 SLP295
T00221028 PWINO FZRANO TSNO





000
SAUS43 KDTX 171153
MTRP58
METAR KP58 171151Z AUTO 12015KT 02/M03 A3039 RMK AO2 SLP300
T00171033 10017 20011 58001 PWINO FZRANO TSNO





000
SAUS43 KDTX 171054
MTRP58
METAR KP58 171051Z AUTO 13011KT 01/M04 A3040 RMK AO2 SLP303
T00111039 PWINO FZRANO TSNO





000
SAUS43 KDTX 170954
MTRP58
METAR KP58 170951Z AUTO 13011KT 01/M04 A3039 RMK AO2 SLP303
T00111044 PWINO FZRANO TSNO





000
SAUS43 KDTX 170853
MTRP58
METAR KP58 170851Z AUTO 13013KT 01/M04 A3039 RMK AO2 SLP301
T00111044 58001 PWINO FZRANO TSNO





000
SAUS43 KDTX 170754
MTRP58
METAR KP58 170751Z AUTO 14012G17KT 02/M04 A3040 RMK AO2 SLP305
T00171039 PWINO FZRANO TSNO





000
SAUS43 KDTX 170652
MTRP58
METAR KP58 170651Z AUTO 13013KT 02/M04 A3039 RMK AO2 SLP301
T00171039 PWINO FZRANO TSNO





000
SAUS43 KDTX 170553
MTRP58
METAR KP58 170551Z AUTO 14012KT 01/M04 A3039 RMK AO2 SLP302
T00111044 10022 20011 56012 PWINO FZRANO TSNO





000
SAUS43 KDTX 170453
MTRP58
METAR KP58 170451Z AUTO 14009G19KT 02/M05 A3040 RMK AO2 SLP303
T00171050 400221050 PWINO FZRANO TSNO





000
SAUS43 KDTX 170352
MTRP58
METAR KP58 170351Z AUTO 15008KT 02/M05 A3041 RMK AO2 SLP309
T00171050 PWINO FZRANO TSNO





000
SAUS43 KDTX 170252
MTRP58
METAR KP58 170251Z AUTO 15006KT 01/M06 A3043 RMK AO2 SLP314
T00111061 53006 PWINO FZRANO TSNO





000
SAUS43 KDTX 170154
MTRP58
METAR KP58 170151Z AUTO 15006KT 02/M05 A3042 RMK AO2 SLP313
T00171050 PWINO FZRANO TSNO





000
SAUS43 KDTX 170052
MTRP58
METAR KP58 170051Z AUTO 13012KT 02/M04 A3041 RMK AO2 SLP309
T00221039 PWINO FZRANO TSNO





000
SAUS43 KDTX 162354
MTRP58
METAR KP58 162351Z AUTO 12013KT 02/M06 A3041 RMK AO2 SLP309
T00171056 10022 20006 53005 PWINO FZRANO TSNO





000
SAUS43 KDTX 162253
MTRP58
METAR KP58 162251Z AUTO 12016KT 02/M06 A3040 RMK AO2 SLP306
T00171056 PWINO FZRANO TSNO





000
SAUS43 KDTX 162153
MTRP58
METAR KP58 162151Z AUTO 11016KT 02/M06 A3039 RMK AO2 SLP303
T00171061 PWINO FZRANO TSNO





000
SAUS43 KDTX 162052
MTRP58
METAR KP58 162051Z AUTO 13016KT 02/M05 A3040 RMK AO2 SLP305
T00221050 56010 PWINO FZRANO TSNO





000
SAUS43 KDTX 161953
MTRP58
METAR KP58 161951Z AUTO 13016KT 02/M05 A3040 RMK AO2 SLP306
T00171050 PWINO FZRANO TSNO





    US Dept of Commerce
    National Oceanic and Atmospheric Administration
    National Weather Service
    1325 East West Highway
    Silver Spring, MD 20910
    Page Author: NWS Internet Services Team
Disclaimer
Information Quality
Credits
Glossary
Privacy Policy
Freedom of Information Act (FOIA)
About Us
Career Opportunities